• Join FlightAware (Why Join?)
  • Login
  • US Flag 
06:56AM EDT


 

Airport Tracker/Info


-or-


 

Live Flight TrackerFlight Track Log ✈ SWA709 ✈ 17-Apr-2013 ✈ KAUS - KLAS

Flight Track Log - Related Links

Times and Time Zones

All times are in EDT time to prevent confusion due to time zone crossing. See the SWA709 flight status page for this flight to view local times or setup timezone preferences in your user account.

Time Position Orientation Groundspeed Altitude Reporting Facility
EDT Latitude Longitude Course Direction KTS MPH feet Rate Location/Type
07:23AM 30.1908 -97.7547 270° West 244 281 6,200  Level Houston Center
07:24AM 30.2519 -97.8253 315° West 307 353 9,100 2,700 Climbing Houston Center
07:25AM 30.2675 -97.9267 280° West 321 369 11,700 2,820 Climbing Houston Center
07:26AM 30.2906 -98.0508 282° West 359 413 14,900 3,000 Climbing Houston Center
07:27AM 30.4118 -97.8623 276° West  Level FlightAware Approximate
07:27AM 30.3117 -98.1706 282° West 376 433 17,800  Level Houston Center
07:28AM 30.4167 -97.9843 270° West  Level FlightAware Approximate
07:28AM 30.3344 -98.2875 283° West 393 452 20,600  Level Houston Center
07:29AM 30.3561 -98.4167 281° West 403 464 23,300 2,580 Climbing Houston Center
07:30AM 30.3825 -98.5469 283° West 410 472 25,900 2,220 Climbing Houston Center
07:31AM 30.4108 -98.6786 284° West 417 480 27,900 1,980 Climbing Houston Center
07:32AM 30.4406 -98.8156 284° West 432 497 29,900 2,340 Climbing Houston Center
07:33AM 30.4706 -98.9483 285° West 424 488 32,700 2,880 Climbing Houston Center
07:34AM 30.4969 -99.0694 284° West 391 450 35,800 2,820 Climbing Houston Center
07:35AM 30.5217 -99.1828 284° West 349 402 38,500 1,620 Climbing Houston Center
07:36AM 30.5431 -99.2864 284° West 334 384 39,200 600 Climbing Houston Center
07:37AM 30.5661 -99.3928 284° West 340 391 39,800 360 Climbing Houston Center
07:38AM 30.5892 -99.5031 284° West 351 404 40,000 60 Climbing Houston Center
07:39AM 30.6139 -99.6128 285° West 354 407 40,000  Level Houston Center
07:40AM 30.6344 -99.7228 282° West 350 403 40,000  Level Houston Center
07:41AM 30.6572 -99.8314 284° West 350 403 40,000  Level Houston Center
07:42AM 30.6794 -99.9408 283° West 350 403 40,000  Level Houston Center
07:43AM 30.7069 -100.0678 284° West 343 395 40,000  Level Houston Center
07:44AM 30.7272 -100.1719 283° West 337 388 40,000  Level Houston Center
07:45AM 30.7481 -100.2742 283° West 331 381 40,000  Level Houston Center
07:46AM 30.7692 -100.3797 283° West 337 388 40,000  Level Houston Center
07:47AM 30.7903 -100.4856 283° West 338 389 40,000  Level Houston Center
07:48AM 30.8125 -100.5903 284° West 346 398 40,000  Level Houston Center
07:49AM 30.8325 -100.6967 282° West 341 392 40,000  Level Houston Center
07:50AM 30.8536 -100.8031 283° West 343 395 40,000  Level Houston Center
07:51AM 30.8747 -100.9094 283° West 342 394 40,000  Level Houston Center
07:52AM 30.9003 -101.0383 283° West 343 395 40,000  Level Houston Center
07:53AM 30.9214 -101.1464 283° West 347 399 40,000  Level Houston Center
07:54AM 30.9436 -101.2536 284° West 344 396 40,000  Level Houston Center
07:56AM 30.9661 -101.3675 283° West 345 397 40,000  Level Houston Center
07:56AM 30.9733 -101.4106 281° West 345 397 40,000  Level Albuquerque Center
07:57AM 30.9944 -101.5197 283° West 345 397 40,000  Level Albuquerque Center
07:58AM 31.0156 -101.6272 283° West 342 394 40,000  Level Albuquerque Center
07:59AM 31.0358 -101.7364 282° West 343 395 40,000  Level Albuquerque Center
08:00AM 31.0561 -101.8447 282° West 343 395 40,000  Level Albuquerque Center
08:01AM 31.0769 -101.9636 282° West 351 404 40,000  Level Albuquerque Center
08:02AM 31.0978 -102.0722 283° West 347 399 40,000  Level Albuquerque Center
08:03AM 31.1178 -102.1786 282° West 340 391 40,000  Level Albuquerque Center
08:04AM 31.1381 -102.2844 283° West 336 387 40,000  Level Albuquerque Center
08:05AM 31.1569 -102.3889 282° West 332 382 40,000  Level Albuquerque Center
08:06AM 31.1764 -102.4933 282° West 330 380 40,000  Level Albuquerque Center
08:07AM 31.1950 -102.5975 282° West 328 377 40,000  Level Albuquerque Center
08:08AM 31.2142 -102.7028 282° West 328 377 40,000  Level Albuquerque Center
08:09AM 31.2339 -102.8072 282° West 329 379 40,000  Level Albuquerque Center
08:10AM 31.2528 -102.9119 282° West 330 380 40,000  Level Albuquerque Center
08:11AM 31.2719 -103.0167 282° West 330 380 40,000  Level Albuquerque Center
08:12AM 31.2897 -103.1217 281° West 330 380 40,000  Level Albuquerque Center
08:13AM 31.3100 -103.2272 283° West 331 381 40,000 -60 Level Albuquerque Center
08:14AM 31.3500 -103.3256 295° West 334 384 39,900  Descending Albuquerque Center
08:15AM 31.4078 -103.4425 300° West 345 397 40,000  Climbing Albuquerque Center
08:16AM 31.4542 -103.5411 299° West 346 398 40,000  Level Albuquerque Center
08:17AM 31.5017 -103.6400 299° West 347 399 40,000 -60 Level Albuquerque Center
08:18AM 31.5486 -103.7394 299° West 348 400 39,900  Descending Albuquerque Center
08:19AM 31.5983 -103.8383 301° West 349 402 40,000  Climbing Albuquerque Center
08:20AM 31.6447 -103.9353 299° West 348 400 40,000  Level Albuquerque Center
08:21AM 31.6903 -104.0306 299° West 344 396 40,000  Level Albuquerque Center
08:22AM 31.7339 -104.1247 299° West 338 389 40,000 -60 Level Albuquerque Center
08:23AM 31.7792 -104.2214 299° West 337 388 39,900  Descending Albuquerque Center
08:24AM 31.8250 -104.3197 299° West 339 390 40,000  Climbing Albuquerque Center
08:25AM 31.8711 -104.4189 299° West 342 394 39,900 -420 Descending Albuquerque Center
08:26AM 31.9186 -104.5186 299° West 347 399 39,200 -840 Descending Albuquerque Center
08:27AM 31.9611 -104.6142 298° West 338 389 38,300 -900 Descending Albuquerque Center
08:28AM 32.0042 -104.7050 299° West 326 375 37,400 -900 Descending Albuquerque Center
08:29AM 32.0489 -104.8014 299° West 332 382 36,500 -720 Descending Albuquerque Center
08:30AM 32.0933 -104.8981 299° West 337 388 36,000 -300 Descending Albuquerque Center
08:31AM 32.1394 -104.9961 299° West 342 394 36,000  Level Albuquerque Center
08:32AM 32.1839 -105.0922 299° West 338 389 36,000  Level Albuquerque Center
08:33AM 32.2292 -105.1925 298° West 336 387 36,000  Level Albuquerque Center
08:34AM 32.2717 -105.2894 297° West 334 384 36,000  Level Albuquerque Center
08:35AM 32.3156 -105.3844 299° West 340 391 36,000  Level Albuquerque Center
08:36AM 32.3589 -105.4794 298° West 332 382 36,000  Level Albuquerque Center
08:37AM 32.4019 -105.5742 298° West 329 379 36,000  Level Albuquerque Center
08:38AM 32.4433 -105.6686 297° West 326 375 36,000  Level Albuquerque Center
08:39AM 32.4953 -105.7803 299° West 324 373 36,000  Level Albuquerque Center
08:40AM 32.5372 -105.8758 298° West 328 377 36,000  Level Albuquerque Center
08:41AM 32.5800 -105.9706 298° West 327 376 36,000  Level Albuquerque Center
08:42AM 32.6231 -106.0653 298° West 325 374 36,000  Level Albuquerque Center
08:43AM 32.6650 -106.1606 298° West 328 377 36,000  Level Albuquerque Center
08:44AM 32.7047 -106.2517 297° West 318 366 36,000  Level Albuquerque Center
08:45AM 32.7483 -106.3458 299° West 324 373 36,000  Level Albuquerque Center
08:46AM 32.7900 -106.4400 298° West 325 374 36,000  Level Albuquerque Center
08:47AM 32.8308 -106.5339 297° West 323 372 36,000 -60 Level Albuquerque Center
08:48AM 32.8722 -106.6292 297° West 325 374 35,900  Descending Albuquerque Center
08:49AM 32.9133 -106.7217 298° West 323 372 36,000  Climbing Albuquerque Center
08:50AM 32.9531 -106.8150 297° West 320 368 36,000  Level Albuquerque Center
08:51AM 32.9944 -106.9083 298° West 321 369 36,000  Level Albuquerque Center
08:52AM 33.0356 -107.0022 298° West 322 371 36,000  Level Albuquerque Center
08:53AM 33.0758 -107.0961 297° West 320 368 36,000  Level Albuquerque Center
08:54AM 33.1256 -107.2092 298° West 322 371 36,000  Level Albuquerque Center
08:55AM 33.1653 -107.3047 296° West 323 372 36,000  Level Albuquerque Center
08:57AM 33.2083 -107.3997 298° West 326 375 36,000  Level Albuquerque Center
08:58AM 33.2497 -107.4981 297° West 331 381 36,000 -60 Level Albuquerque Center
08:59AM 33.2906 -107.5939 297° West 326 375 35,900  Descending Albuquerque Center
09:00AM 33.3325 -107.6906 297° West 327 376 36,000  Climbing Albuquerque Center
09:01AM 33.3736 -107.7897 296° West 332 382 36,000 -60 Level Albuquerque Center
09:02AM 33.4186 -107.8925 298° West 345 397 35,900 -60 Descending Albuquerque Center
09:03AM 33.4614 -107.9947 297° West 346 398 35,900  Level Albuquerque Center
09:04AM 33.5031 -108.0944 297° West 339 390 36,000  Climbing Albuquerque Center
09:05AM 33.5503 -108.2044 297° West 336 387 36,000  Level Albuquerque Center
09:06AM 33.5928 -108.3044 297° West 340 391 36,000  Level Albuquerque Center
09:07AM 33.6369 -108.4089 297° West 350 403 36,000  Level Albuquerque Center
09:08AM 33.6803 -108.5133 297° West 353 406 36,000  Level Albuquerque Center
09:09AM 33.7231 -108.6167 296° West 352 405 36,000  Level Albuquerque Center
09:10AM 33.7658 -108.7183 297° West 348 400 36,000  Level Albuquerque Center
09:11AM 33.8081 -108.8225 296° West 349 402 36,000  Level Albuquerque Center
09:12AM 33.8497 -108.9242 296° West 347 399 36,000  Level Albuquerque Center
09:13AM 33.9000 -109.0458 296° West 343 395 36,000  Level Albuquerque Center
09:14AM 33.9419 -109.1481 296° West 344 396 36,000  Level Albuquerque Center
09:15AM 33.9833 -109.2483 296° West 342 394 36,000  Level Albuquerque Center
09:16AM 34.0250 -109.3519 296° West 343 395 36,000  Level Albuquerque Center
09:17AM 34.0711 -109.4622 297° West 346 398 36,000  Level Albuquerque Center
09:18AM 34.1117 -109.5639 296° West 348 400 36,000  Level Albuquerque Center
09:19AM 34.1600 -109.6831 296° West 352 405 36,000  Level Albuquerque Center
09:20AM 34.2003 -109.7847 296° West 352 405 36,000  Level Albuquerque Center
09:21AM 34.2597 -109.8747 309° West 359 413 36,000  Level Albuquerque Center
09:22AM 34.3433 -109.9678 317° Northwest 366 421 36,000  Level Albuquerque Center
09:23AM 34.4131 -110.0469 317° Northwest 362 417 36,000  Level Albuquerque Center
09:24AM 34.4850 -110.1269 318° Northwest 363 418 36,000  Level Albuquerque Center
09:25AM 34.5683 -110.2239 316° Northwest 368 423 36,000  Level Albuquerque Center
09:26AM 34.6400 -110.3081 316° Northwest 371 427 36,000  Level Albuquerque Center
09:27AM 34.7111 -110.3889 317° Northwest 368 423 36,000  Level Albuquerque Center
09:28AM 34.7922 -110.4822 317° Northwest 362 417 36,000  Level Albuquerque Center
09:29AM 34.8631 -110.5625 317° Northwest 362 417 36,000  Level Albuquerque Center
09:30AM 34.9333 -110.6456 316° Northwest 364 419 36,000  Level Albuquerque Center
09:31AM 34.9711 -110.7583 292° West 366 421 36,000  Level Albuquerque Center
09:32AM 34.9978 -110.8706 286° West 350 403 36,000  Level Albuquerque Center
09:33AM 35.0258 -110.9842 287° West 351 404 36,000 -60 Level Albuquerque Center
09:34AM 35.0561 -111.1028 287° West 368 423 35,900 -600 Descending Albuquerque Center
09:35AM 35.0831 -111.2144 286° West 354 407 34,800 -1,020 Descending Albuquerque Center
09:36AM 35.1106 -111.3275 287° West 349 402 33,900 -960 Descending Albuquerque Center
09:37AM 35.1381 -111.4428 286° West 354 407 32,900 -960 Descending Albuquerque Center
09:38AM 35.1661 -111.5625 286° West 362 417 32,000 -1,140 Descending Albuquerque Center
09:39AM 35.2008 -111.7053 287° West 366 421 30,700 -1,020 Descending Albuquerque Center
09:40AM 35.2242 -111.8017 287° West 352 405 30,000 -360 Descending Albuquerque Center
09:41AM 35.2506 -111.9111 286° West 341 392 30,000  Level Albuquerque Center
09:42AM 35.2761 -112.0211 286° West 338 389 30,000  Level Albuquerque Center
09:43AM 35.3081 -112.1564 286° West 344 396 30,000  Level Albuquerque Center
09:44AM 35.3342 -112.2700 286° West 347 399 30,000  Level Albuquerque Center
09:45AM 35.3614 -112.3850 286° West 351 404 30,000  Level Albuquerque Center
09:46AM 35.3825 -112.4764 286° West 351 404 30,000  Level Los Angeles Center
09:47AM 35.4097 -112.5911 286° West 353 406 30,000  Level Los Angeles Center
09:48AM 35.4356 -112.7036 286° West 351 404 30,000  Level Los Angeles Center
09:49AM 35.4614 -112.8181 286° West 349 402 30,000  Level Los Angeles Center
09:50AM 35.4914 -112.9497 286° West 351 404 30,000  Level Los Angeles Center
09:51AM 35.5186 -113.0692 286° West 358 412 30,000  Level Los Angeles Center
09:52AM 35.5453 -113.1872 286° West 358 412 30,000  Level Los Angeles Center
09:53AM 35.5719 -113.3086 285° West 364 419 30,000 -540 Level Los Angeles Center
09:54AM 35.5997 -113.4317 286° West 373 429 28,900 -1,740 Descending Los Angeles Center
09:55AM 35.6256 -113.5519 285° West 370 426 26,500 -2,400 Descending Los Angeles Center
09:56AM 35.6436 -113.6689 281° West 358 412 24,100 -2,400 Descending Los Angeles Center
09:57AM 35.6586 -113.7839 279° West 346 398 21,700 -2,340 Descending Los Angeles Center
09:58AM 35.6747 -113.8964 280° West 338 389 19,400 -1,920 Descending Los Angeles Center
09:59AM 35.6936 -114.0292 280° West 330 380 17,800 -1,860 Descending Los Angeles Center
10:00AM 35.7092 -114.1414 280° West 325 374 15,600 -2,100 Descending Los Angeles Center
10:01AM 35.7214 -114.2133 282° West 322 371 14,300 -1,980 Descending Los Angeles Center
10:01AM 35.7231 -114.2478 273° West 317 365 13,600 -1,920 Descending Los Angeles Center
10:02AM 35.7400 -114.3239 285° West 308 354 12,200 -1,560 Descending Los Angeles Center
10:02AM 35.7503 -114.3439 302° West 306 352 12,000 -1,020 Descending Los Angeles Center
10:03AM 35.7975 -114.3972 318° Northwest 302 348 11,200 -1,020 Descending Los Angeles Center
10:03AM 35.8106 -114.4144 313° West 301 346 11,000 -900 Descending Los Angeles Center
10:04AM 35.8536 -114.4633 317° Northwest 299 344 10,400 -900 Descending Los Angeles Center
10:04AM 35.8697 -114.4853 312° West 297 342 10,100 -360 Descending Los Angeles Center
10:05AM 35.9214 -114.5442 317° Northwest 295 339 10,000 -120 Descending Los Angeles Center
10:05AM 35.9281 -114.5536 311° West 291 335 10,000 -240 Level Los Angeles Center
10:06AM 35.9689 -114.6025 316° Northwest 237 273 9,800 -420 Descending Los Angeles Center
10:06AM 35.9736 -114.6092 311° West 235 270 9,600 -1,140 Descending Los Angeles Center
10:07AM 35.9969 -114.6703 295° West 228 262 8,700 -1,020 Descending Los Angeles Center
10:07AM 36.0025 -114.6792 308° West 228 262 8,600 -1,140 Descending Los Angeles Center
10:08AM 36.0236 -114.7411 293° West 225 259 7,600 -780 Descending Los Angeles Center
10:08AM 36.0364 -114.7642 304° West 227 261 7,800 -900 Climbing Los Angeles Center
10:09AM 36.0519 -114.8117 292° West 227 261 6,700 -1,320 Descending Los Angeles Center
10:09AM 36.0617 -114.8322 300° West 225 259 6,500 -720 Descending Los Angeles Center
10:10AM 36.0753 -114.8783 290° West 214 246 6,000 -900 Descending Los Angeles Center
10:11AM 36.0775 -114.9039 276° West 222 255 5,600 -1,200 Descending Los Angeles Center
10:11AM 36.0744 -114.9531 266° West 219 252 4,900 -1,200 Descending Los Angeles Center
10:12AM 36.0733 -114.9789 267° West 221 254 4,400 -1,080 Descending Los Angeles Center
10:12AM 36.0731 -115.0256 270° West 187 215 3,700 -1,020 Descending Los Angeles Center
10:13AM 36.0742 -115.0389 276° West 200 230 3,400 -840 Descending Los Angeles Center
10:13AM 36.0728 -115.0736 267° West 137 158 2,900 -720 Descending Los Angeles Center
10:14AM 36.0742 -115.0856 278° West 164 189 2,700 -840 Descending Los Angeles Center
10:14AM 36.0739 -115.1183 269° West 133 153 2,100 -780 Descending Los Angeles Center
10:15AM 36.0744 -115.1303 273° West 144 166 1,900 -480 Descending Los Angeles Center
10:17AM 36.0667 -115.1500 270° West  Level FlightAware Approximate